Time;durP1;ratioP1;P1;durP2;ratioP2;P2;SDS_P1;SDS_P2;PMS_P1;PMS_P2;Temp;Humidity;BMP_temperature;BMP_pressure;BME280_temperature;BME280_humidity;BME280_pressure;Samples;Min_cycle;Max_cycle;Signal;HPM_P1;HPM_P2
2021/05/02 00:00:13;;;;;;;5.82;4.60;;;7.30;77.80;;;;;;2058605;28;20023;-84
2021/05/02 00:01:15;;;;;;;7.25;5.32;;;7.30;77.80;;;;;;2075232;28;20025;-84
2021/05/02 00:02:15;;;;;;;7.22;5.25;;;7.20;77.80;;;;;;2086919;28;20122;-84
2021/05/02 00:03:16;;;;;;;7.00;4.78;;;7.20;77.90;;;;;;2077630;28;20622;-84
2021/05/02 00:04:16;;;;;;;6.75;5.20;;;7.20;77.90;;;;;;2083065;28;20044;-84
2021/05/02 00:05:19;;;;;;;7.13;5.30;;;7.20;77.90;;;;;;2095775;28;20052;-85
2021/05/02 00:06:20;;;;;;;6.57;5.05;;;7.20;78.00;;;;;;2086942;28;20061;-84
2021/05/02 00:07:21;;;;;;;7.07;5.30;;;7.20;78.00;;;;;;2087500;28;20399;-84
2021/05/02 00:08:21;;;;;;;7.38;5.22;;;7.20;78.10;;;;;;2082711;28;20071;-84
2021/05/02 00:09:22;;;;;;;7.55;5.22;;;7.20;78.10;;;;;;2075556;28;20029;-83
2021/05/02 00:10:24;;;;;;;7.63;5.40;;;7.20;78.20;;;;;;2086285;28;20531;-84
2021/05/02 00:11:25;;;;;;;6.45;4.78;;;7.20;78.20;;;;;;2087435;28;20025;-84
2021/05/02 00:12:26;;;;;;;7.45;5.15;;;7.20;78.20;;;;;;2080289;28;20603;-84
2021/05/02 00:13:27;;;;;;;7.75;5.30;;;7.20;78.20;;;;;;2075290;28;20022;-84
2021/05/02 00:14:28;;;;;;;7.35;5.20;;;7.20;78.20;;;;;;2082089;28;20116;-84
2021/05/02 00:15:30;;;;;;;7.40;5.32;;;7.20;78.20;;;;;;2093592;28;20111;-84
2021/05/02 00:16:31;;;;;;;7.05;5.15;;;7.20;78.30;;;;;;2086833;28;20029;-84
2021/05/02 00:17:39;;;;;;;8.02;5.60;;;7.20;78.30;;;;;;2087168;28;20136;-83
2021/05/02 00:18:40;;;;;;;7.68;5.47;;;7.20;78.40;;;;;;2094098;28;20036;-84
2021/05/02 00:19:42;;;;;;;8.02;5.97;;;7.10;78.30;;;;;;2096052;28;20139;-83
2021/05/02 00:20:44;;;;;;;7.35;5.30;;;7.10;78.40;;;;;;2087214;28;20025;-84
2021/05/02 00:21:50;;;;;;;7.65;5.28;;;7.10;78.50;;;;;;2087062;28;20117;-84
2021/05/02 00:22:53;;;;;;;6.55;5.35;;;7.10;79.20;;;;;;2079333;28;20511;-84
2021/05/02 00:23:54;;;;;;;6.07;4.75;;;7.10;78.60;;;;;;2070116;28;20042;-84
2021/05/02 00:24:55;;;;;;;6.70;5.18;;;7.10;78.70;;;;;;2087290;28;20189;-84
2021/05/02 00:25:56;;;;;;;7.43;5.20;;;7.00;78.70;;;;;;2076755;28;20571;-84
2021/05/02 00:26:57;;;;;;;6.68;5.05;;;7.00;79.30;;;;;;2061866;28;20030;-84
2021/05/02 00:28:05;;;;;;;7.65;5.25;;;7.00;78.80;;;;;;2071766;28;20191;-84
2021/05/02 00:29:09;;;;;;;6.80;5.38;;;7.00;78.80;;;;;;2077509;28;20029;-84
2021/05/02 00:30:16;;;;;;;6.93;5.43;;;7.00;78.90;;;;;;2094053;28;20048;-84
2021/05/02 00:31:18;;;;;;;6.65;4.88;;;6.90;78.90;;;;;;2092912;28;20039;-84
2021/05/02 00:32:20;;;;;;;8.88;6.03;;;6.90;78.90;;;;;;2084019;28;20033;-84
2021/05/02 00:33:22;;;;;;;7.90;5.35;;;6.90;79.00;;;;;;2068133;28;20034;-83
2021/05/02 00:34:24;;;;;;;7.13;5.50;;;6.90;79.10;;;;;;2070666;28;20022;-83
2021/05/02 00:35:25;;;;;;;7.68;5.70;;;6.90;79.10;;;;;;2079742;28;20034;-83
2021/05/02 00:36:27;;;;;;;6.97;5.15;;;6.80;79.20;;;;;;2087896;28;20399;-84
2021/05/02 00:37:28;;;;;;;6.38;5.07;;;6.80;79.20;;;;;;2093514;28;20126;-84
2021/05/02 00:38:29;;;;;;;7.88;5.68;;;6.80;79.30;;;;;;2094552;28;20036;-84
2021/05/02 00:39:30;;;;;;;6.72;5.10;;;6.80;79.30;;;;;;2085093;28;20029;-83
2021/05/02 00:40:35;;;;;;;7.05;5.18;;;6.80;79.40;;;;;;2084967;28;20021;-84
2021/05/02 00:41:40;;;;;;;7.40;5.40;;;6.80;79.60;;;;;;2092779;28;20021;-83
2021/05/02 00:42:50;;;;;;;7.05;5.38;;;6.80;79.50;;;;;;2091064;28;20021;-84
2021/05/02 00:43:58;;;;;;;7.72;5.45;;;6.70;79.50;;;;;;2090832;28;20060;-84
2021/05/02 00:45:07;;;;;;;7.25;5.35;;;6.80;79.60;;;;;;2083260;28;20021;-82
2021/05/02 00:46:16;;;;;;;7.15;5.57;;;6.80;79.50;;;;;;2088037;28;20029;-84
2021/05/02 00:47:39;;;;;;;7.13;4.97;;;6.70;79.50;;;;;;2086491;28;20063;-83
2021/05/02 00:49:11;;;;;;;7.00;5.22;;;6.80;79.50;;;;;;2074092;28;20066;-83
2021/05/02 00:50:17;;;;;;;7.13;5.18;;;6.80;79.50;;;;;;2082898;28;20028;-83
2021/05/02 00:51:21;;;;;;;7.22;5.00;;;6.80;79.40;;;;;;2071069;28;20043;-83
2021/05/02 00:52:56;;;;;;;6.28;4.93;;;6.70;79.40;;;;;;2071868;28;20018;-83
2021/05/02 00:53:56;;;;;;;7.32;5.03;;;6.80;80.00;;;;;;2081078;28;20030;-83
2021/05/02 00:55:07;;;;;;;6.93;5.07;;;6.80;79.30;;;;;;2080888;28;20119;-83
2021/05/02 00:56:31;;;;;;;7.35;5.18;;;6.80;79.30;;;;;;2073239;28;20022;-83
2021/05/02 00:57:53;;;;;;;7.80;5.13;;;6.80;79.30;;;;;;2084750;28;20030;-83
2021/05/02 00:59:05;;;;;;;6.22;4.72;;;6.80;79.20;;;;;;2082265;28;20018;-82
2021/05/02 01:00:08;;;;;;;6.47;4.57;;;6.80;79.20;;;;;;2075666;28;20090;-83
2021/05/02 01:01:14;;;;;;;6.60;4.95;;;6.90;79.20;;;;;;2088807;28;20435;-83
2021/05/02 01:02:16;;;;;;;7.07;5.25;;;6.90;79.20;;;;;;2076623;28;20070;-82
2021/05/02 01:03:24;;;;;;;6.75;4.65;;;6.90;79.30;;;;;;2072231;28;21381;-83
2021/05/02 01:04:29;;;;;;;6.32;4.68;;;6.90;79.30;;;;;;2081540;28;20064;-83
2021/05/02 01:05:32;;;;;;;7.50;4.85;;;6.90;79.30;;;;;;2082451;28;20026;-83
2021/05/02 01:06:33;;;;;;;6.80;5.07;;;6.90;79.30;;;;;;2075182;28;20025;-84
2021/05/02 01:07:40;;;;;;;6.82;4.80;;;6.90;79.30;;;;;;2073641;28;20026;-83
2021/05/02 01:08:41;;;;;;;7.00;5.10;;;7.00;79.30;;;;;;2079529;28;20022;-83
2021/05/02 01:09:42;;;;;;;7.28;4.68;;;7.00;79.40;;;;;;2072003;28;20496;-84
2021/05/02 01:10:45;;;;;;;6.63;4.68;;;7.00;79.30;;;;;;2077000;28;20037;-84
2021/05/02 01:11:47;;;;;;;6.38;4.93;;;7.00;79.40;;;;;;2085850;28;20022;-84
2021/05/02 01:12:51;;;;;;;7.10;4.93;;;7.00;79.40;;;;;;2083224;28;20025;-84
2021/05/02 01:13:57;;;;;;;6.43;4.70;;;7.00;79.40;;;;;;2085630;28;20028;-84
2021/05/02 01:14:58;;;;;;;6.32;4.70;;;7.00;79.40;;;;;;2078775;28;20025;-84
2021/05/02 01:16:01;;;;;;;5.25;4.20;;;7.00;79.30;;;;;;2072156;28;20036;-84
2021/05/02 01:17:05;;;;;;;7.03;4.43;;;7.00;79.40;;;;;;2071940;28;20532;-84
2021/05/02 01:18:08;;;;;;;5.85;4.32;;;7.00;79.30;;;;;;2075081;28;20026;-84
2021/05/02 01:19:10;;;;;;;6.90;4.50;;;7.00;79.30;;;;;;2077445;28;20119;-83
2021/05/02 01:20:15;;;;;;;6.63;4.40;;;7.10;79.30;;;;;;2082818;28;20097;-83
2021/05/02 01:21:17;;;;;;;6.35;4.25;;;7.10;79.30;;;;;;2083562;28;20037;-83
2021/05/02 01:22:20;;;;;;;6.65;4.32;;;7.10;79.30;;;;;;2086963;28;20045;-83
2021/05/02 01:23:23;;;;;;;6.00;4.43;;;7.10;79.30;;;;;;2073831;28;20034;-84
2021/05/02 01:24:25;;;;;;;5.80;4.18;;;7.10;79.30;;;;;;2067545;28;20018;-83
2021/05/02 01:25:26;;;;;;;6.32;4.38;;;7.20;79.30;;;;;;2089852;28;20096;-83
2021/05/02 01:26:28;;;;;;;6.70;4.20;;;7.20;79.30;;;;;;2068099;28;20117;-83
2021/05/02 01:27:32;;;;;;;6.72;4.55;;;7.20;79.30;;;;;;2065716;28;20504;-83
2021/05/02 01:28:36;;;;;;;6.38;4.40;;;7.20;79.30;;;;;;2065771;28;20428;-83
2021/05/02 01:29:37;;;;;;;5.82;4.15;;;7.20;79.30;;;;;;2078622;28;20577;-83
2021/05/02 01:30:38;;;;;;;6.13;4.45;;;7.20;79.30;;;;;;2055889;28;20038;-83
2021/05/02 01:31:40;;;;;;;7.38;4.53;;;7.20;79.30;;;;;;2067932;28;20041;-84
2021/05/02 01:32:40;;;;;;;5.40;3.65;;;7.20;79.90;;;;;;2075561;28;20033;-83
2021/05/02 01:33:41;;;;;;;5.32;3.75;;;7.20;79.40;;;;;;2075303;28;20038;-83
2021/05/02 01:34:44;;;;;;;6.18;3.70;;;7.20;79.30;;;;;;2067492;28;20400;-83
2021/05/02 01:35:45;;;;;;;6.28;4.40;;;7.20;79.30;;;;;;2072838;28;20034;-83
2021/05/02 01:36:46;;;;;;;5.63;3.60;;;7.20;79.30;;;;;;2068135;28;20416;-84
2021/05/02 01:37:49;;;;;;;5.22;3.72;;;7.20;79.20;;;;;;2064748;28;20127;-84
2021/05/02 01:38:51;;;;;;;5.10;3.60;;;7.30;79.20;;;;;;2073165;28;20022;-84
2021/05/02 01:39:52;;;;;;;5.00;3.53;;;7.30;79.20;;;;;;2073647;28;20419;-83
2021/05/02 01:40:54;;;;;;;5.32;3.60;;;7.30;79.10;;;;;;2079682;28;20037;-84
2021/05/02 01:41:54;;;;;;;5.20;3.33;;;7.30;79.10;;;;;;2072971;28;20419;-84
2021/05/02 01:42:55;;;;;;;5.07;3.50;;;7.20;79.00;;;;;;2078720;28;20029;-83
2021/05/02 01:43:56;;;;;;;5.63;3.75;;;7.30;79.10;;;;;;2069751;28;20181;-83
2021/05/02 01:44:56;;;;;;;5.78;3.28;;;7.30;79.10;;;;;;2071404;28;20507;-84
2021/05/02 01:45:57;;;;;;;5.47;3.60;;;7.30;79.00;;;;;;2078828;28;20029;-84
2021/05/02 01:47:02;;;;;;;5.25;3.30;;;7.30;79.00;;;;;;2073428;28;20113;-84
2021/05/02 01:48:05;;;;;;;5.65;3.35;;;7.30;78.90;;;;;;2075249;28;20140;-84
2021/05/02 01:49:09;;;;;;;5.20;3.10;;;7.30;78.90;;;;;;2078282;28;20158;-83
2021/05/02 01:50:11;;;;;;;5.25;3.22;;;7.30;79.00;;;;;;2084321;28;20470;-84
2021/05/02 01:51:14;;;;;;;6.18;3.30;;;7.20;78.80;;;;;;2083984;28;20083;-83
2021/05/02 01:52:17;;;;;;;5.07;3.33;;;7.30;79.40;;;;;;2081017;28;20119;-84
2021/05/02 01:53:18;;;;;;;4.80;3.35;;;7.30;78.90;;;;;;2093352;28;20035;-84
2021/05/02 01:54:18;;;;;;;7.05;3.47;;;7.20;78.80;;;;;;2083887;28;20032;-83
2021/05/02 01:55:21;;;;;;;4.85;3.28;;;7.20;78.80;;;;;;2067285;28;20026;-83
2021/05/02 01:56:23;;;;;;;4.30;2.90;;;7.20;78.70;;;;;;2075804;28;20022;-84
2021/05/02 01:57:29;;;;;;;5.15;3.25;;;7.20;78.70;;;;;;2094860;28;20517;-84
2021/05/02 01:58:31;;;;;;;5.28;3.08;;;7.20;78.70;;;;;;2092587;28;20526;-83
2021/05/02 01:59:32;;;;;;;5.40;3.08;;;7.20;78.70;;;;;;2092340;28;20472;-83
2021/05/02 02:00:49;;;;;;;4.95;3.05;;;7.20;78.80;;;;;;2076163;28;20030;-83
2021/05/02 02:01:49;;;;;;;5.32;2.90;;;7.20;78.80;;;;;;2075042;28;20037;-83
2021/05/02 02:02:52;;;;;;;4.47;2.70;;;7.10;78.70;;;;;;2075946;28;20503;-83
2021/05/02 02:03:54;;;;;;;4.80;2.63;;;7.10;79.30;;;;;;2077130;28;20018;-83
2021/05/02 02:04:58;;;;;;;4.70;2.53;;;7.10;78.80;;;;;;2076946;28;20029;-84
2021/05/02 02:06:00;;;;;;;3.97;2.70;;;7.00;78.80;;;;;;2084297;28;20454;-83
2021/05/02 02:07:01;;;;;;;3.58;2.50;;;7.00;78.80;;;;;;2067596;28;20037;-83
2021/05/02 02:08:03;;;;;;;4.20;2.50;;;7.00;79.50;;;;;;2076811;28;20021;-83
2021/05/02 02:09:06;;;;;;;4.55;2.58;;;7.00;78.90;;;;;;2090810;28;20036;-84
2021/05/02 02:10:08;;;;;;;4.30;2.50;;;6.90;78.90;;;;;;2090147;28;20104;-83
2021/05/02 02:11:10;;;;;;;4.43;2.20;;;6.90;78.90;;;;;;2081400;28;20576;-83
2021/05/02 02:12:11;;;;;;;4.55;2.45;;;6.80;78.90;;;;;;2078408;28;20021;-83
2021/05/02 02:13:14;;;;;;;4.07;2.35;;;6.80;79.00;;;;;;2088573;28;20036;-83
2021/05/02 02:14:15;;;;;;;3.72;2.30;;;6.80;79.00;;;;;;2086080;28;20033;-83
2021/05/02 02:15:16;;;;;;;3.20;1.92;;;6.80;79.00;;;;;;2074877;28;20287;-83
2021/05/02 02:16:17;;;;;;;3.53;2.15;;;6.70;79.00;;;;;;2084325;28;20029;-84
2021/05/02 02:17:19;;;;;;;4.22;2.03;;;6.70;79.00;;;;;;2093479;28;20479;-83
2021/05/02 02:18:20;;;;;;;3.95;2.47;;;6.70;79.10;;;;;;2086618;28;20506;-84
2021/05/02 02:19:20;;;;;;;4.55;2.33;;;6.70;79.10;;;;;;2083890;28;20175;-82
2021/05/02 02:20:25;;;;;;;4.05;1.98;;;6.70;79.20;;;;;;2084397;28;20090;-83
2021/05/02 02:21:26;;;;;;;3.72;2.20;;;6.60;79.10;;;;;;2080909;28;20518;-83
2021/05/02 02:22:28;;;;;;;4.90;2.28;;;6.60;79.20;;;;;;2093306;28;20399;-84
2021/05/02 02:23:32;;;;;;;4.07;2.00;;;6.60;79.20;;;;;;2083186;28;20422;-84
2021/05/02 02:24:38;;;;;;;3.25;1.98;;;6.60;79.20;;;;;;2084078;28;20060;-83
2021/05/02 02:25:45;;;;;;;4.07;2.00;;;6.60;79.30;;;;;;2086804;28;20580;-83
2021/05/02 02:26:54;;;;;;;3.63;2.00;;;6.60;79.30;;;;;;2086208;28;20499;-84
2021/05/02 02:27:56;;;;;;;2.92;1.90;;;6.50;79.30;;;;;;2076489;28;20025;-83
2021/05/02 02:29:00;;;;;;;3.85;2.20;;;6.50;79.30;;;;;;2068282;28;20035;-83
2021/05/02 02:30:06;;;;;;;4.22;2.30;;;6.50;79.40;;;;;;2081965;28;20024;-84
2021/05/02 02:31:11;;;;;;;3.75;2.05;;;6.40;79.40;;;;;;2092811;28;20538;-84
2021/05/02 02:32:13;;;;;;;3.38;2.10;;;6.40;79.40;;;;;;2086169;28;20434;-84
2021/05/02 02:33:15;;;;;;;3.95;2.20;;;6.40;79.50;;;;;;2072842;28;20549;-85
2021/05/02 02:34:18;;;;;;;3.75;2.28;;;6.40;79.60;;;;;;2084467;28;20032;-84
2021/05/02 02:35:21;;;;;;;3.42;2.10;;;6.40;79.60;;;;;;2083856;28;20399;-84
2021/05/02 02:36:23;;;;;;;4.15;2.30;;;6.40;79.60;;;;;;2076998;28;20111;-84
2021/05/02 02:37:26;;;;;;;4.00;2.33;;;6.30;79.60;;;;;;2075205;28;20053;-83
2021/05/02 02:38:28;;;;;;;4.50;2.40;;;6.30;79.70;;;;;;2084439;28;20032;-83
2021/05/02 02:39:30;;;;;;;3.10;2.00;;;6.30;79.70;;;;;;2083022;28;20529;-83
2021/05/02 02:40:36;;;;;;;4.65;2.15;;;6.30;79.70;;;;;;2086046;28;20025;-84
2021/05/02 02:41:42;;;;;;;5.50;2.33;;;6.30;79.70;;;;;;2084395;28;20036;-83
2021/05/02 02:42:46;;;;;;;4.28;2.40;;;6.30;79.70;;;;;;2075379;28;20437;-84
2021/05/02 02:43:58;;;;;;;3.90;2.50;;;6.40;79.70;;;;;;2082702;28;20033;-83
2021/05/02 02:45:03;;;;;;;3.28;2.10;;;6.30;79.70;;;;;;2074690;28;20034;-83
2021/05/02 02:46:04;;;;;;;4.05;2.15;;;6.30;80.20;;;;;;2077041;28;20026;-83
2021/05/02 02:47:08;;;;;;;5.15;2.70;;;6.30;80.20;;;;;;2080895;28;20136;-83
2021/05/02 02:48:11;;;;;;;3.50;2.30;;;6.40;79.60;;;;;;2083791;28;20041;-83
2021/05/02 02:49:13;;;;;;;3.55;2.15;;;6.40;79.60;;;;;;2083911;28;20043;-83
2021/05/02 02:50:17;;;;;;;4.03;2.42;;;6.40;79.60;;;;;;2075967;28;20030;-83
2021/05/02 02:51:19;;;;;;;4.70;2.60;;;6.40;79.60;;;;;;2080575;28;20667;-83
2021/05/02 02:52:21;;;;;;;3.88;2.33;;;6.40;79.60;;;;;;2083079;28;20112;-83
2021/05/02 02:53:25;;;;;;;5.32;2.67;;;6.40;79.60;;;;;;2077401;28;20120;-82
2021/05/02 02:54:30;;;;;;;3.90;2.60;;;6.50;79.60;;;;;;2071938;28;20140;-83
2021/05/02 02:55:35;;;;;;;5.28;2.83;;;6.50;79.70;;;;;;2073784;28;20026;-83
2021/05/02 02:56:41;;;;;;;3.92;2.35;;;6.50;79.60;;;;;;2074986;28;20022;-83
2021/05/02 02:57:51;;;;;;;4.70;2.80;;;6.50;79.70;;;;;;2090962;28;20056;-83
2021/05/02 02:59:11;;;;;;;4.97;2.50;;;6.50;79.60;;;;;;2094687;28;20017;-83
2021/05/02 03:00:13;;;;;;;5.45;2.78;;;6.50;79.60;;;;;;2087096;28;20091;-83
2021/05/02 03:01:15;;;;;;;4.28;2.85;;;6.50;79.50;;;;;;2080101;28;20026;-83
2021/05/02 03:02:17;;;;;;;4.38;2.40;;;6.50;80.10;;;;;;2083221;28;20056;-83
2021/05/02 03:03:19;;;;;;;4.45;2.50;;;6.50;79.50;;;;;;2088852;28;20017;-83
2021/05/02 03:04:23;;;;;;;5.47;2.80;;;6.50;79.60;;;;;;2072494;28;20045;-83
2021/05/02 03:05:24;;;;;;;4.88;2.78;;;6.50;79.60;;;;;;2072745;28;20109;-84
2021/05/02 03:06:26;;;;;;;3.97;2.72;;;6.50;79.60;;;;;;2072577;28;20038;-84
2021/05/02 03:07:30;;;;;;;3.60;2.30;;;6.50;79.60;;;;;;2076526;28;20184;-84
2021/05/02 03:08:31;;;;;;;4.03;2.60;;;6.50;79.60;;;;;;2077105;28;20041;-84
2021/05/02 03:09:34;;;;;;;5.25;2.78;;;6.50;79.70;;;;;;2079027;28;20029;-84
2021/05/02 03:10:36;;;;;;;5.05;2.70;;;6.50;79.70;;;;;;2082498;28;20044;-84
2021/05/02 03:11:37;;;;;;;4.43;2.72;;;6.60;79.80;;;;;;2083872;28;20047;-84
2021/05/02 03:12:38;;;;;;;4.45;2.63;;;6.60;79.80;;;;;;2080096;28;20116;-84
2021/05/02 03:13:42;;;;;;;4.30;2.60;;;6.60;79.80;;;;;;2087041;28;20407;-84
2021/05/02 03:14:42;;;;;;;3.92;2.42;;;6.60;79.80;;;;;;2087801;28;20037;-84
2021/05/02 03:15:43;;;;;;;4.55;2.63;;;6.60;79.80;;;;;;2072708;28;20034;-84
2021/05/02 03:16:47;;;;;;;5.65;2.70;;;6.50;79.80;;;;;;2072981;28;20026;-83
2021/05/02 03:18:12;;;;;;;3.90;2.50;;;6.50;79.90;;;;;;2078114;28;20137;-83
2021/05/02 03:19:27;;;;;;;4.90;2.75;;;6.50;79.90;;;;;;2085641;28;20120;-83
2021/05/02 03:20:30;;;;;;;4.72;2.58;;;6.50;79.90;;;;;;2092064;28;20037;-84
2021/05/02 03:21:37;;;;;;;4.47;2.65;;;6.50;79.90;;;;;;2083590;28;20426;-84
2021/05/02 03:22:56;;;;;;;7.03;2.65;;;6.50;80.00;;;;;;2075909;28;20642;-84
2021/05/02 03:23:58;;;;;;;4.50;2.28;;;6.50;80.00;;;;;;2083700;28;20033;-84
2021/05/02 03:25:01;;;;;;;4.18;2.70;;;6.50;80.00;;;;;;2072231;28;20033;-84
2021/05/02 03:26:05;;;;;;;4.97;2.78;;;6.60;80.10;;;;;;2061356;28;20027;-83
2021/05/02 03:27:18;;;;;;;5.53;2.75;;;6.50;80.00;;;;;;2080481;28;20021;-83
2021/05/02 03:28:30;;;;;;;4.82;2.60;;;6.50;80.00;;;;;;2084857;28;20031;-83
2021/05/02 03:29:38;;;;;;;5.10;2.40;;;6.50;80.00;;;;;;2078271;28;20030;-84
2021/05/02 03:30:42;;;;;;;5.18;2.30;;;6.50;80.00;;;;;;2082044;28;20048;-84
2021/05/02 03:31:48;;;;;;;3.67;2.40;;;6.50;80.10;;;;;;2084853;28;20025;-83
2021/05/02 03:32:51;;;;;;;4.13;2.50;;;6.50;80.10;;;;;;2089081;28;20029;-83
2021/05/02 03:33:56;;;;;;;4.05;2.35;;;6.40;80.10;;;;;;2095227;28;20044;-83
2021/05/02 03:34:59;;;;;;;4.93;2.70;;;6.50;80.20;;;;;;2088086;28;20021;-83
2021/05/02 03:36:05;;;;;;;4.38;2.20;;;6.50;80.30;;;;;;2092955;28;20078;-83
2021/05/02 03:37:18;;;;;;;4.70;2.58;;;6.40;80.20;;;;;;2091965;28;20017;-83
2021/05/02 03:38:50;;;;;;;4.32;2.25;;;6.40;80.20;;;;;;2077500;28;20046;-83
2021/05/02 03:39:51;;;;;;;3.83;2.30;;;6.50;80.20;;;;;;2083182;28;20025;-84
2021/05/02 03:40:55;;;;;;;5.00;2.55;;;6.40;80.10;;;;;;2088239;28;20024;-84
2021/05/02 03:41:55;;;;;;;3.45;2.30;;;6.50;80.10;;;;;;2093317;28;20020;-84
2021/05/02 03:42:58;;;;;;;4.78;2.30;;;6.50;80.10;;;;;;2076406;28;20056;-84
2021/05/02 03:43:59;;;;;;;4.60;2.10;;;6.50;80.10;;;;;;2074204;28;20541;-84
2021/05/02 03:44:59;;;;;;;3.55;2.30;;;6.50;80.20;;;;;;2077038;28;20038;-84
2021/05/02 03:46:00;;;;;;;4.40;2.13;;;6.50;80.30;;;;;;2072569;28;20026;-84
2021/05/02 03:47:00;;;;;;;4.18;2.38;;;6.40;80.20;;;;;;2063702;28;20488;-84
2021/05/02 03:48:01;;;;;;;5.43;2.40;;;6.50;80.30;;;;;;2048721;28;20031;-84
2021/05/02 03:49:06;;;;;;;3.80;2.13;;;6.40;80.30;;;;;;2063038;28;20728;-84
2021/05/02 03:50:07;;;;;;;5.78;2.25;;;6.40;80.40;;;;;;2070809;28;20052;-84
2021/05/02 03:51:08;;;;;;;3.70;2.17;;;6.40;80.40;;;;;;2077953;28;20120;-83
2021/05/02 03:52:12;;;;;;;4.88;2.30;;;6.40;80.40;;;;;;2069841;28;20033;-83
2021/05/02 03:53:12;;;;;;;4.32;2.22;;;6.40;80.50;;;;;;2068632;28;20072;-83
2021/05/02 03:54:13;;;;;;;3.72;2.17;;;6.40;80.60;;;;;;2068999;28;20030;-83
2021/05/02 03:55:14;;;;;;;2.72;2.00;;;6.30;80.50;;;;;;2074370;28;20030;-83
2021/05/02 03:56:38;;;;;;;4.13;2.30;;;6.40;80.70;;;;;;2072398;28;20034;-83
2021/05/02 03:57:39;;;;;;;2.90;1.73;;;6.30;80.70;;;;;;2081059;28;20360;-83
2021/05/02 03:58:39;;;;;;;3.80;2.15;;;6.30;80.70;;;;;;2075879;28;20031;-83
2021/05/02 03:59:40;;;;;;;3.20;2.00;;;6.30;80.70;;;;;;2068353;28;20032;-83
2021/05/02 04:00:42;;;;;;;3.67;1.92;;;6.20;80.80;;;;;;2059545;28;20027;-83
2021/05/02 04:02:01;;;;;;;3.63;2.00;;;6.20;80.80;;;;;;2059162;28;20132;-83
2021/05/02 04:03:02;;;;;;;3.95;2.08;;;6.20;81.00;;;;;;2080378;28;20018;-83
2021/05/02 04:04:03;;;;;;;3.20;1.95;;;6.10;80.90;;;;;;2075244;28;20104;-83
2021/05/02 04:05:04;;;;;;;3.95;1.80;;;6.10;80.90;;;;;;2077483;28;20037;-83
2021/05/02 04:06:05;;;;;;;3.88;2.10;;;6.10;81.00;;;;;;2085758;28;20020;-83
2021/05/02 04:07:10;;;;;;;3.90;1.85;;;6.10;81.00;;;;;;2081663;28;20044;-83
2021/05/02 04:08:11;;;;;;;3.63;1.92;;;6.10;81.00;;;;;;2076857;28;20546;-83
2021/05/02 04:09:13;;;;;;;3.45;1.95;;;6.10;80.90;;;;;;2063259;28;20027;-84
2021/05/02 04:10:14;;;;;;;3.58;1.92;;;6.10;81.00;;;;;;2049865;28;20023;-83
2021/05/02 04:11:14;;;;;;;4.30;2.20;;;6.00;80.90;;;;;;2070159;28;20116;-84
2021/05/02 04:12:15;;;;;;;3.65;1.73;;;6.00;81.00;;;;;;2069096;28;20030;-83
2021/05/02 04:13:16;;;;;;;3.47;1.83;;;6.10;81.10;;;;;;2074324;28;20105;-82
2021/05/02 04:14:17;;;;;;;5.03;1.88;;;6.00;81.00;;;;;;2074728;28;20052;-83
2021/05/02 04:15:18;;;;;;;4.47;1.90;;;6.00;81.00;;;;;;2071230;28;20527;-82
2021/05/02 04:16:18;;;;;;;3.67;1.90;;;6.00;81.10;;;;;;2047231;28;20031;-82
2021/05/02 04:17:19;;;;;;;3.22;1.75;;;6.00;81.10;;;;;;2057849;28;20030;-82
2021/05/02 04:18:29;;;;;;;3.55;1.58;;;6.00;81.20;;;;;;2079421;28;20116;-83
2021/05/02 04:19:31;;;;;;;3.50;1.90;;;6.00;81.20;;;;;;2086243;28;20407;-83
2021/05/02 04:20:31;;;;;;;3.75;1.88;;;5.90;81.20;;;;;;2085590;28;21274;-82
2021/05/02 04:21:33;;;;;;;3.20;1.73;;;5.90;81.20;;;;;;2067050;28;20388;-82
2021/05/02 04:22:34;;;;;;;3.85;2.03;;;5.90;81.20;;;;;;2062960;28;20536;-84
2021/05/02 04:23:35;;;;;;;3.30;1.88;;;5.90;81.20;;;;;;2067567;28;20048;-83
2021/05/02 04:24:36;;;;;;;3.97;2.17;;;5.90;81.20;;;;;;2062234;28;20033;-83
2021/05/02 04:25:36;;;;;;;3.47;1.77;;;5.90;81.30;;;;;;2047343;28;20055;-83
2021/05/02 04:26:40;;;;;;;3.72;1.80;;;5.90;81.20;;;;;;2054781;28;20077;-83
2021/05/02 04:27:41;;;;;;;3.33;1.80;;;5.90;81.30;;;;;;2052619;28;20030;-82
2021/05/02 04:28:42;;;;;;;2.92;1.80;;;5.90;81.30;;;;;;2057686;28;20050;-83
2021/05/02 04:29:42;;;;;;;4.07;2.80;;;5.90;81.30;;;;;;2065147;28;20429;-83
2021/05/02 04:30:43;;;;;;;3.05;1.80;;;5.90;81.90;;;;;;2077789;28;20033;-83
2021/05/02 04:31:44;;;;;;;4.13;1.70;;;5.90;81.30;;;;;;2069742;28;20481;-83
2021/05/02 04:32:44;;;;;;;3.80;1.73;;;5.90;81.30;;;;;;2065360;28;20029;-83
2021/05/02 04:33:46;;;;;;;3.47;1.58;;;5.90;81.40;;;;;;2068437;28;20027;-83
2021/05/02 04:34:47;;;;;;;3.20;1.50;;;5.90;81.40;;;;;;2067190;28;20502;-83
2021/05/02 04:35:47;;;;;;;3.85;1.60;;;5.90;81.40;;;;;;2069595;28;20302;-82
2021/05/02 04:36:49;;;;;;;2.13;1.42;;;5.90;81.30;;;;;;2063597;28;20030;-83
2021/05/02 04:37:50;;;;;;;3.85;1.80;;;5.90;81.30;;;;;;2072151;28;20404;-83
2021/05/02 04:38:51;;;;;;;3.13;1.70;;;5.90;81.30;;;;;;2071089;28;20053;-83
2021/05/02 04:39:51;;;;;;;2.65;1.70;;;5.90;81.30;;;;;;2070078;28;20037;-83
2021/05/02 04:40:52;;;;;;;4.60;1.75;;;5.90;81.30;;;;;;2078299;28;20416;-83
2021/05/02 04:41:54;;;;;;;3.30;1.60;;;5.90;81.90;;;;;;2079627;28;20040;-83
2021/05/02 04:42:54;;;;;;;4.05;1.90;;;5.80;81.20;;;;;;2087788;28;20103;-83
2021/05/02 04:43:55;;;;;;;4.10;1.85;;;5.80;81.30;;;;;;2068928;28;20041;-83
2021/05/02 04:44:55;;;;;;;2.50;1.60;;;5.80;81.30;;;;;;2054896;28;20039;-83
2021/05/02 04:45:56;;;;;;;3.35;1.60;;;5.80;81.30;;;;;;2055452;28;20023;-83
2021/05/02 04:46:57;;;;;;;3.03;1.83;;;5.90;81.40;;;;;;2071554;28;20109;-83
2021/05/02 04:47:57;;;;;;;3.30;1.80;;;5.80;81.30;;;;;;2083121;28;20025;-83
2021/05/02 04:48:59;;;;;;;4.65;1.80;;;5.90;81.40;;;;;;2069389;28;20030;-83
2021/05/02 04:50:02;;;;;;;4.38;2.00;;;5.80;81.40;;;;;;2075805;28;20037;-83
2021/05/02 04:51:03;;;;;;;2.97;1.70;;;5.80;81.90;;;;;;2078346;28;20503;-83
2021/05/02 04:52:04;;;;;;;4.38;1.70;;;5.80;81.30;;;;;;2075430;28;20041;-83
2021/05/02 04:53:04;;;;;;;4.45;1.95;;;5.80;81.40;;;;;;2082203;28;20026;-83
2021/05/02 04:54:07;;;;;;;4.70;2.05;;;5.80;81.40;;;;;;2078310;28;20510;-83
2021/05/02 04:55:08;;;;;;;4.05;1.70;;;5.80;81.40;;;;;;2078725;28;20036;-83
2021/05/02 04:56:09;;;;;;;4.57;2.00;;;5.80;81.40;;;;;;2078550;28;20103;-83
2021/05/02 04:57:09;;;;;;;4.63;1.90;;;5.80;81.40;;;;;;2077280;28;20068;-83
2021/05/02 04:58:10;;;;;;;2.78;1.50;;;5.80;81.40;;;;;;2081899;28;20064;-83
2021/05/02 04:59:11;;;;;;;3.33;1.70;;;5.80;81.30;;;;;;2076680;28;20399;-83
2021/05/02 05:00:12;;;;;;;5.18;1.73;;;5.90;81.30;;;;;;2077567;28;20021;-83
2021/05/02 05:01:13;;;;;;;2.90;1.60;;;5.90;81.30;;;;;;2084949;28;20033;-83
2021/05/02 05:02:14;;;;;;;4.43;1.80;;;5.90;81.20;;;;;;2077705;28;20026;-83
2021/05/02 05:03:16;;;;;;;3.95;1.85;;;6.00;81.20;;;;;;2084450;28;20021;-83
2021/05/02 05:04:17;;;;;;;3.33;1.50;;;6.00;81.10;;;;;;2094239;28;20386;-83
2021/05/02 05:05:19;;;;;;;3.90;1.85;;;6.00;81.00;;;;;;2071930;28;20108;-83
2021/05/02 05:06:19;;;;;;;3.25;1.52;;;6.10;81.00;;;;;;2067518;28;20049;-83
2021/05/02 05:07:20;;;;;;;3.33;1.70;;;6.10;80.90;;;;;;2075380;28;20037;-83
2021/05/02 05:08:20;;;;;;;3.00;1.70;;;6.20;80.80;;;;;;2075521;28;20113;-82
2021/05/02 05:09:21;;;;;;;3.08;1.65;;;6.20;81.30;;;;;;2068264;28;20030;-83
2021/05/02 05:10:22;;;;;;;3.75;1.77;;;6.30;80.60;;;;;;2059255;28;20023;-83
2021/05/02 05:11:23;;;;;;;2.40;1.63;;;6.30;80.50;;;;;;2071588;28;20041;-82
2021/05/02 05:12:23;;;;;;;3.15;1.80;;;6.40;80.40;;;;;;2077786;28;20022;-83
2021/05/02 05:13:26;;;;;;;3.33;1.77;;;6.40;80.30;;;;;;2085730;28;20521;-83
2021/05/02 05:14:26;;;;;;;3.00;1.40;;;6.50;80.10;;;;;;2087033;28;20033;-83
2021/05/02 05:15:27;;;;;;;3.33;1.50;;;6.60;80.00;;;;;;2073717;28;20080;-83
2021/05/02 05:16:28;;;;;;;2.72;1.50;;;6.60;79.80;;;;;;2077187;28;20476;-82
2021/05/02 05:17:29;;;;;;;3.35;1.60;;;6.70;79.60;;;;;;2066527;28;20053;-83
2021/05/02 05:18:30;;;;;;;2.67;1.50;;;6.70;79.50;;;;;;2073719;28;20030;-82
2021/05/02 05:19:30;;;;;;;3.40;1.73;;;6.80;79.40;;;;;;2075575;28;20598;-82
2021/05/02 05:20:31;;;;;;;2.50;1.38;;;6.80;79.30;;;;;;2080358;28;20042;-84
2021/05/02 05:21:31;;;;;;;4.20;1.67;;;6.80;79.20;;;;;;2071637;28;20084;-83
2021/05/02 05:22:32;;;;;;;3.53;1.50;;;6.80;79.10;;;;;;2071182;28;20465;-83
2021/05/02 05:23:33;;;;;;;2.42;1.40;;;6.80;79.10;;;;;;2075171;28;20399;-83
2021/05/02 05:24:34;;;;;;;4.03;1.60;;;6.80;79.20;;;;;;2080174;28;20044;-83
2021/05/02 05:25:34;;;;;;;3.28;1.75;;;6.80;79.20;;;;;;2062853;28;20113;-83
2021/05/02 05:26:35;;;;;;;3.47;1.42;;;6.80;79.10;;;;;;2062461;28;20026;-82
2021/05/02 05:27:36;;;;;;;2.85;1.65;;;6.80;79.20;;;;;;2075118;28;20468;-83
2021/05/02 05:28:36;;;;;;;3.95;1.55;;;6.80;79.20;;;;;;2075394;28;20103;-83
2021/05/02 05:29:37;;;;;;;4.90;1.70;;;6.80;79.20;;;;;;2068447;28;20125;-83
2021/05/02 05:30:37;;;;;;;4.38;1.55;;;6.80;79.30;;;;;;2077208;28;20038;-83
2021/05/02 05:31:38;;;;;;;3.47;1.60;;;6.80;79.20;;;;;;2075823;28;20486;-83
2021/05/02 05:32:39;;;;;;;2.58;1.40;;;6.80;79.10;;;;;;2058544;28;21762;-83
2021/05/02 05:33:40;;;;;;;2.28;1.40;;;6.90;79.00;;;;;;2052476;28;20154;-83